Time;durP1;ratioP1;P1;durP2;ratioP2;P2;SDS_P1;SDS_P2;PMS_P1;PMS_P2;Temp;Humidity;BMP_temperature;BMP_pressure;BME280_temperature;BME280_humidity;BME280_pressure;Samples;Min_cycle;Max_cycle;Signal;HPM_P1;HPM_P2
2023/04/08 00:00:20;;;;;;;14.30;8.73;;;;;;;-145.18;100.00;60484.78;5054688;28;20107;-64
2023/04/08 00:02:46;;;;;;;13.47;8.10;;;;;;;-145.18;100.00;60484.78;5055468;28;20064;-64
2023/04/08 00:05:11;;;;;;;14.83;8.20;;;;;;;-145.18;100.00;60484.78;5054991;28;20025;-64
2023/04/08 00:07:37;;;;;;;14.37;8.90;;;;;;;-145.18;100.00;60484.78;5054661;28;20059;-64
2023/04/08 00:10:03;;;;;;;15.03;8.70;;;;;;;-145.18;100.00;60484.78;5055066;28;20398;-64
2023/04/08 00:12:29;;;;;;;17.63;9.73;;;;;;;-145.18;100.00;60484.78;5054633;28;20456;-64
2023/04/08 00:14:54;;;;;;;15.10;8.73;;;;;;;-145.18;100.00;60484.78;5055211;28;20075;-64
2023/04/08 00:17:20;;;;;;;17.77;9.50;;;;;;;-145.18;100.00;60484.78;5054529;28;20040;-65
2023/04/08 00:19:45;;;;;;;15.27;9.03;;;;;;;-145.18;100.00;60484.78;5054183;28;20032;-64
2023/04/08 00:22:11;;;;;;;15.33;8.43;;;;;;;-145.18;100.00;60484.78;5053392;28;20032;-64
2023/04/08 00:24:37;;;;;;;14.83;9.47;;;;;;;-145.18;100.00;60484.78;5054075;28;20025;-64
2023/04/08 00:27:03;;;;;;;17.50;9.70;;;;;;;-145.18;100.00;60484.78;5053701;28;20080;-64
2023/04/08 00:29:28;;;;;;;16.37;9.10;;;;;;;-145.18;100.00;60484.78;5045149;28;20055;-64
2023/04/08 00:31:54;;;;;;;14.23;8.97;;;;;;;-145.18;100.00;60484.78;5054960;28;20025;-64
2023/04/08 00:34:19;;;;;;;16.63;9.23;;;;;;;-145.18;100.00;60484.78;5054941;28;20103;-64
2023/04/08 00:36:46;;;;;;;16.10;9.90;;;;;;;-145.18;100.00;60484.78;5054865;28;20033;-64
2023/04/08 00:39:12;;;;;;;14.77;9.10;;;;;;;-145.18;100.00;60484.78;5054834;28;20029;-64
2023/04/08 00:41:38;;;;;;;16.17;9.07;;;;;;;-145.18;100.00;60484.78;5054967;28;20036;-64
2023/04/08 00:44:03;;;;;;;14.40;8.90;;;;;;;-145.18;100.00;60484.78;5054925;28;20385;-64
2023/04/08 00:46:35;;;;;;;15.70;9.43;;;;;;;-145.18;100.00;60484.78;5054890;28;20112;-64
2023/04/08 00:49:01;;;;;;;14.90;9.63;;;;;;;-145.18;100.00;60484.78;5054443;28;20025;-64
2023/04/08 00:51:28;;;;;;;19.00;8.77;;;;;;;-145.18;100.00;60484.78;5053762;28;20029;-64
2023/04/08 00:53:54;;;;;;;16.43;9.37;;;;;;;-145.18;100.00;60484.78;5054522;28;20056;-64
2023/04/08 00:56:20;;;;;;;15.53;9.40;;;;;;;-145.18;100.00;60484.78;5053210;28;20024;-64
2023/04/08 00:58:46;;;;;;;17.17;9.60;;;;;;;-145.18;100.00;60484.78;5053431;28;20405;-64
2023/04/08 01:05:04;;;;;;;16.52;9.27;;;;;;;-145.18;100.00;60484.78;5048837;28;20405;-64
2023/04/08 01:07:49;;;;;;;16.57;9.10;;;;;;;-145.18;100.00;60484.78;5053981;28;20025;-64
2023/04/08 01:10:20;;;;;;;18.40;8.93;;;;;;;-145.18;100.00;60484.78;5047811;28;20025;-64
2023/04/08 01:12:52;;;;;;;18.70;9.43;;;;;;;-145.18;100.00;60484.78;5051108;28;20102;-64
2023/04/08 01:15:19;;;;;;;14.63;8.70;;;;;;;-145.18;100.00;60484.78;5053360;28;20155;-64
2023/04/08 01:17:45;;;;;;;18.17;9.10;;;;;;;-145.18;100.00;60484.78;5053189;28;20461;-64
2023/04/08 01:20:12;;;;;;;15.07;8.60;;;;;;;-145.18;100.00;60484.78;5052586;28;20546;-64
2023/04/08 01:23:09;;;;;;;17.40;9.17;;;;;;;-145.18;100.00;60484.78;5050496;28;20052;-64
2023/04/08 01:25:37;;;;;;;15.60;9.13;;;;;;;-145.18;100.00;60484.78;5050675;28;20041;-64
2023/04/08 01:28:11;;;;;;;14.93;8.93;;;;;;;-145.18;100.00;60484.78;5052431;28;20047;-64
2023/04/08 01:30:39;;;;;;;16.57;9.20;;;;;;;-145.18;100.00;60484.78;5051074;28;20029;-64
2023/04/08 01:33:06;;;;;;;16.17;9.20;;;;;;;-145.18;100.00;60484.78;5053395;28;20165;-64
2023/04/08 01:35:32;;;;;;;16.33;9.10;;;;;;;-145.18;100.00;60484.78;5053996;28;20481;-64
2023/04/08 01:37:59;;;;;;;15.00;9.23;;;;;;;-145.18;100.00;60484.78;5053013;28;20127;-64
2023/04/08 01:40:24;;;;;;;16.10;9.60;;;;;;;-145.18;100.00;60484.78;5053339;28;20017;-64
2023/04/08 01:42:53;;;;;;;15.27;9.73;;;;;;;-145.18;100.00;60484.78;5053303;28;20387;-64
2023/04/08 01:45:21;;;;;;;15.80;9.37;;;;;;;-145.18;100.00;60484.78;5049692;28;20029;-63
2023/04/08 01:47:48;;;;;;;15.50;10.07;;;;;;;-145.18;100.00;60484.78;5052052;28;20098;-64
2023/04/08 01:50:15;;;;;;;14.60;9.00;;;;;;;-145.18;100.00;60484.78;5053246;28;20628;-64
2023/04/08 01:52:43;;;;;;;17.90;9.70;;;;;;;-145.18;100.00;60484.78;5052948;28;20049;-64
2023/04/08 01:55:09;;;;;;;16.03;9.77;;;;;;;-145.18;100.00;60484.78;5053429;28;20432;-64
2023/04/08 01:57:36;;;;;;;17.17;9.80;;;;;;;-145.18;100.00;60484.78;5053311;28;20033;-64
2023/04/08 02:00:06;;;;;;;16.47;9.10;;;;;;;-145.18;100.00;60484.78;5052676;28;20092;-64
2023/04/08 02:02:34;;;;;;;20.60;9.83;;;;;;;-145.18;100.00;60484.78;5053666;28;20112;-64
2023/04/08 02:05:00;;;;;;;14.87;10.03;;;;;;;-145.18;100.00;60484.78;5053657;28;20053;-69
2023/04/08 02:07:26;;;;;;;17.97;9.50;;;;;;;-145.18;100.00;60484.78;5053487;28;20100;-69
2023/04/08 02:09:52;;;;;;;17.73;9.80;;;;;;;-145.18;100.00;60484.78;5053224;28;20553;-69
2023/04/08 02:12:18;;;;;;;16.93;9.67;;;;;;;-145.18;100.00;60484.78;5053376;28;20035;-69
2023/04/08 02:14:43;;;;;;;14.33;9.50;;;;;;;-145.18;100.00;60484.78;5053316;28;20055;-70
2023/04/08 02:17:13;;;;;;;17.23;10.53;;;;;;;-145.18;100.00;60484.78;5052179;28;20028;-70
2023/04/08 02:20:02;;;;;;;17.83;9.83;;;;;;;-145.18;100.00;60484.78;5051324;28;20025;-69
2023/04/08 02:23:02;;;;;;;18.17;9.90;;;;;;;-145.18;100.00;60484.78;5037792;28;20472;-69
2023/04/08 02:25:29;;;;;;;18.30;10.30;;;;;;;-145.18;100.00;60484.78;5049225;28;20033;-69
2023/04/08 02:27:56;;;;;;;15.93;9.37;;;;;;;-145.18;100.00;60484.78;5052528;28;20029;-69
2023/04/08 02:30:26;;;;;;;19.30;10.63;;;;;;;-145.18;100.00;60484.78;5051504;28;20028;-69
2023/04/08 02:32:53;;;;;;;19.40;10.33;;;;;;;-145.18;100.00;60484.78;5051886;28;20033;-70
2023/04/08 02:35:19;;;;;;;20.60;10.93;;;;;;;-145.18;100.00;60484.78;5051711;28;20117;-69
2023/04/08 02:37:48;;;;;;;19.10;10.83;;;;;;;-145.18;100.00;60484.78;5052057;28;20033;-69
2023/04/08 02:40:24;;;;;;;16.63;10.77;;;;;;;-145.18;100.00;60484.78;5051875;28;20027;-69
2023/04/08 02:42:50;;;;;;;23.87;11.83;;;;;;;-145.18;100.00;60484.78;5051938;28;20401;-69
2023/04/08 02:45:16;;;;;;;18.60;11.23;;;;;;;-145.18;100.00;60484.78;5052244;28;20029;-69
2023/04/08 02:47:41;;;;;;;19.10;12.13;;;;;;;-145.18;100.00;60484.78;5052419;28;20477;-69
2023/04/08 02:50:07;;;;;;;19.70;11.37;;;;;;;-145.18;100.00;60484.78;5052709;28;20435;-69
2023/04/08 02:52:33;;;;;;;18.33;11.13;;;;;;;-145.18;100.00;60484.78;5052192;28;20052;-69
2023/04/08 02:54:58;;;;;;;18.77;10.93;;;;;;;-145.18;100.00;60484.78;5051406;28;20499;-69
2023/04/08 02:57:24;;;;;;;19.57;11.27;;;;;;;-145.18;100.00;60484.78;5044883;28;20033;-69
2023/04/08 02:59:49;;;;;;;20.03;11.43;;;;;;;-145.18;100.00;60484.78;5044815;28;20025;-69
2023/04/08 03:02:15;;;;;;;20.60;12.20;;;;;;;-145.18;100.00;60484.78;5049839;28;20085;-67
2023/04/08 03:04:40;;;;;;;19.50;11.63;;;;;;;-145.18;100.00;60484.78;5052007;28;20017;-67
2023/04/08 03:07:06;;;;;;;21.37;11.23;;;;;;;-145.18;100.00;60484.78;5051912;28;20040;-67
2023/04/08 03:09:31;;;;;;;20.53;11.40;;;;;;;-145.18;100.00;60484.78;5051871;28;21130;-67
2023/04/08 03:11:56;;;;;;;19.47;10.97;;;;;;;-145.18;100.00;60484.78;5052129;28;20587;-66
2023/04/08 03:14:22;;;;;;;19.47;11.60;;;;;;;-145.18;100.00;60484.78;5051774;28;20404;-67
2023/04/08 03:16:48;;;;;;;19.97;11.43;;;;;;;-145.18;100.00;60484.78;5052072;28;20035;-67
2023/04/08 03:19:13;;;;;;;24.57;11.70;;;;;;;-145.18;100.00;60484.78;5051210;28;20104;-67
2023/04/08 03:21:38;;;;;;;21.17;11.60;;;;;;;-145.18;100.00;60484.78;5051393;28;20029;-68
2023/04/08 03:24:04;;;;;;;20.70;12.73;;;;;;;-145.18;100.00;60484.78;5050123;28;20103;-67
2023/04/08 03:26:30;;;;;;;19.20;11.23;;;;;;;-145.18;100.00;60484.78;5049287;28;20029;-67
2023/04/08 03:28:55;;;;;;;21.70;11.97;;;;;;;-145.18;100.00;60484.78;5052581;28;20033;-67
2023/04/08 03:31:21;;;;;;;20.33;11.90;;;;;;;-145.18;100.00;60484.78;5055237;28;20029;-67
2023/04/08 03:33:46;;;;;;;19.63;11.30;;;;;;;-145.18;100.00;60484.78;5055594;28;20029;-67
2023/04/08 03:36:12;;;;;;;21.93;12.40;;;;;;;-145.18;100.00;60484.78;5041933;28;20104;-67
2023/04/08 03:38:37;;;;;;;22.10;12.40;;;;;;;-145.18;100.00;60484.78;5054428;28;20081;-67
2023/04/08 03:41:03;;;;;;;25.83;13.43;;;;;;;-145.18;100.00;60484.78;5054719;28;20029;-67
2023/04/08 03:43:29;;;;;;;21.80;12.90;;;;;;;-145.18;100.00;60484.78;5044421;28;20032;-67
2023/04/08 03:45:55;;;;;;;22.67;12.80;;;;;;;-145.18;100.00;60484.78;5055897;28;20040;-67
2023/04/08 03:48:21;;;;;;;24.47;11.93;;;;;;;-145.18;100.00;60484.78;5054719;28;20035;-67
2023/04/08 03:50:47;;;;;;;22.63;12.33;;;;;;;-145.18;100.00;60484.78;5055650;28;20025;-68
2023/04/08 03:53:12;;;;;;;24.90;12.70;;;;;;;-145.18;100.00;60484.78;5055191;28;20024;-67
2023/04/08 03:55:38;;;;;;;24.00;13.47;;;;;;;-145.18;100.00;60484.78;5054511;28;20025;-69
2023/04/08 03:58:03;;;;;;;26.33;13.63;;;;;;;-145.18;100.00;60484.78;5055174;28;20516;-68
2023/04/08 04:00:29;;;;;;;22.97;13.43;;;;;;;-145.18;100.00;60484.78;5055065;28;20036;-67
2023/04/08 04:02:55;;;;;;;23.23;13.20;;;;;;;-145.18;100.00;60484.78;5052998;28;20090;-68
2023/04/08 04:05:21;;;;;;;25.87;13.23;;;;;;;-145.18;100.00;60484.78;5054793;28;20024;-68
2023/04/08 04:07:46;;;;;;;25.60;13.67;;;;;;;-145.18;100.00;60484.78;5052995;28;20037;-68
2023/04/08 04:10:11;;;;;;;23.30;13.33;;;;;;;-145.18;100.00;60484.78;5054096;28;20029;-68
2023/04/08 04:12:37;;;;;;;24.50;13.97;;;;;;;-145.18;100.00;60484.78;5054834;28;20021;-68
2023/04/08 04:15:03;;;;;;;26.00;13.20;;;;;;;-145.18;100.00;60484.78;5055379;28;20481;-67
2023/04/08 04:17:29;;;;;;;23.23;13.00;;;;;;;-145.18;100.00;60484.78;5054115;28;20025;-67
2023/04/08 04:19:55;;;;;;;25.43;13.80;;;;;;;-145.18;100.00;60484.78;5054633;28;20032;-68
2023/04/08 04:22:20;;;;;;;24.63;12.83;;;;;;;-145.18;100.00;60484.78;5054473;28;20032;-68
2023/04/08 04:24:47;;;;;;;21.97;12.20;;;;;;;-145.18;100.00;60484.78;5053726;28;20107;-69
2023/04/08 04:27:13;;;;;;;22.60;12.90;;;;;;;-145.18;100.00;60484.78;5053613;28;20032;-68
2023/04/08 04:29:38;;;;;;;24.30;12.33;;;;;;;-145.18;100.00;60484.78;5048260;28;20389;-68
2023/04/08 04:32:05;;;;;;;23.27;12.30;;;;;;;-145.18;100.00;60484.78;5053836;28;20032;-69
2023/04/08 04:34:31;;;;;;;24.47;12.87;;;;;;;-145.18;100.00;60484.78;5054533;28;20033;-68
2023/04/08 04:36:56;;;;;;;25.73;13.20;;;;;;;-145.18;100.00;60484.78;5054445;28;20033;-68
2023/04/08 04:39:22;;;;;;;26.77;13.13;;;;;;;-145.18;100.00;60484.78;5053368;28;20017;-68
2023/04/08 04:41:48;;;;;;;24.40;13.60;;;;;;;-145.18;100.00;60484.78;5035642;28;20112;-68
2023/04/08 04:44:13;;;;;;;26.57;14.13;;;;;;;-145.18;100.00;60484.78;5054271;28;20378;-68
2023/04/08 04:46:39;;;;;;;29.97;15.60;;;;;;;-145.18;100.00;60484.78;5053851;28;20040;-68
2023/04/08 04:49:05;;;;;;;27.07;14.67;;;;;;;-145.18;100.00;60484.78;5054025;28;20031;-68
2023/04/08 04:51:32;;;;;;;30.57;16.67;;;;;;;-145.18;100.00;60484.78;5049878;28;20033;-68
2023/04/08 04:53:57;;;;;;;31.67;16.73;;;;;;;-145.18;100.00;60484.78;5050119;28;20389;-68
2023/04/08 04:56:24;;;;;;;33.10;17.27;;;;;;;-145.18;100.00;60484.78;5053626;28;20025;-68
2023/04/08 04:58:49;;;;;;;34.87;18.63;;;;;;;-145.18;100.00;60484.78;5052976;28;20028;-68
2023/04/08 05:01:15;;;;;;;37.50;18.57;;;;;;;-145.18;100.00;60484.78;5050113;28;20159;-69
2023/04/08 05:03:40;;;;;;;37.23;19.27;;;;;;;-145.18;100.00;60484.78;5054274;28;20025;-68
2023/04/08 05:06:06;;;;;;;35.30;17.77;;;;;;;-145.18;100.00;60484.78;5053706;28;20033;-68
2023/04/08 05:08:31;;;;;;;34.50;17.27;;;;;;;-145.18;100.00;60484.78;5053995;28;20102;-68
2023/04/08 05:11:00;;;;;;;35.17;17.90;;;;;;;-145.18;100.00;60484.78;5054203;28;20035;-68
2023/04/08 05:13:26;;;;;;;38.23;18.37;;;;;;;-145.18;100.00;60484.78;5051444;28;20033;-68
2023/04/08 05:15:52;;;;;;;41.23;19.03;;;;;;;-145.18;100.00;60484.78;5053676;28;20458;-68
2023/04/08 05:18:17;;;;;;;34.47;17.87;;;;;;;-145.18;100.00;60484.78;5049662;28;20112;-68
2023/04/08 05:20:43;;;;;;;36.93;18.20;;;;;;;-145.18;100.00;60484.78;5052170;28;20052;-68
2023/04/08 05:23:08;;;;;;;38.03;18.83;;;;;;;-145.18;100.00;60484.78;5053697;28;20029;-68
2023/04/08 05:25:34;;;;;;;35.47;17.73;;;;;;;-145.18;100.00;60484.78;5053187;28;20024;-68
2023/04/08 05:28:00;;;;;;;33.83;17.80;;;;;;;-145.18;100.00;60484.78;5046093;28;20026;-68
2023/04/08 05:30:25;;;;;;;36.67;18.10;;;;;;;-145.18;100.00;60484.78;5048466;28;20585;-68
2023/04/08 05:32:51;;;;;;;33.63;17.87;;;;;;;-145.18;100.00;60484.78;5053109;28;20074;-68
2023/04/08 05:35:16;;;;;;;37.70;19.27;;;;;;;-145.18;100.00;60484.78;5035491;28;20017;-68
2023/04/08 05:37:42;;;;;;;37.17;19.30;;;;;;;-145.18;100.00;60484.78;5053040;28;20037;-68
2023/04/08 05:40:08;;;;;;;35.53;18.50;;;;;;;-145.18;100.00;60484.78;5052520;28;20182;-68
2023/04/08 05:42:34;;;;;;;36.30;18.30;;;;;;;-145.18;100.00;60484.78;5053618;28;20033;-68
2023/04/08 05:45:00;;;;;;;36.57;18.47;;;;;;;-145.18;100.00;60484.78;5053592;28;20082;-67
2023/04/08 05:47:25;;;;;;;37.10;19.07;;;;;;;-145.18;100.00;60484.78;5041477;28;20037;-68
2023/04/08 05:49:51;;;;;;;35.83;19.20;;;;;;;-145.18;100.00;60484.78;5033939;28;20096;-68
2023/04/08 05:52:16;;;;;;;33.47;18.60;;;;;;;-145.18;100.00;60484.78;5033300;28;20421;-68
2023/04/08 05:54:42;;;;;;;37.90;18.87;;;;;;;-145.18;100.00;60484.78;5033612;28;20033;-69
2023/04/08 05:57:08;;;;;;;34.30;18.23;;;;;;;-145.18;100.00;60484.78;5033645;28;20103;-68
2023/04/08 05:59:33;;;;;;;37.07;18.83;;;;;;;-145.18;100.00;60484.78;5050587;28;20493;-68
2023/04/08 06:01:59;;;;;;;33.47;17.70;;;;;;;-145.18;100.00;60484.78;5051498;28;20024;-68
2023/04/08 06:04:24;;;;;;;36.73;18.20;;;;;;;-145.18;100.00;60484.78;5053112;28;20120;-69
2023/04/08 06:06:50;;;;;;;35.43;18.30;;;;;;;-145.18;100.00;60484.78;5053406;28;20082;-68
2023/04/08 06:09:15;;;;;;;33.90;18.30;;;;;;;-145.18;100.00;60484.78;5053289;28;20431;-68
2023/04/08 06:11:41;;;;;;;32.93;16.47;;;;;;;-145.18;100.00;60484.78;5053248;28;20021;-68
2023/04/08 06:14:06;;;;;;;41.27;18.33;;;;;;;-145.18;100.00;60484.78;5053083;28;20033;-68
2023/04/08 06:16:32;;;;;;;35.63;17.23;;;;;;;-145.18;100.00;60484.78;5053137;28;20036;-68
2023/04/08 06:18:57;;;;;;;37.43;18.87;;;;;;;-145.18;100.00;60484.78;5053020;28;20032;-68
2023/04/08 06:21:26;;;;;;;37.10;17.20;;;;;;;-145.18;100.00;60484.78;5053445;28;20028;-68
2023/04/08 06:23:52;;;;;;;35.43;17.07;;;;;;;-145.18;100.00;60484.78;5053247;28;20044;-68
2023/04/08 06:26:17;;;;;;;38.33;17.60;;;;;;;-145.18;100.00;60484.78;5051360;28;20037;-68
2023/04/08 06:28:42;;;;;;;36.73;16.87;;;;;;;-145.18;100.00;60484.78;5041893;28;20112;-70
2023/04/08 06:31:08;;;;;;;40.67;19.13;;;;;;;-145.18;100.00;60484.78;5051096;28;20029;-69
2023/04/08 06:33:33;;;;;;;45.27;18.77;;;;;;;-145.18;100.00;60484.78;5048272;28;20105;-69
2023/04/08 06:36:06;;;;;;;38.93;17.83;;;;;;;-145.18;100.00;60484.78;5049156;28;20389;-68
2023/04/08 06:38:31;;;;;;;34.50;16.47;;;;;;;-145.18;100.00;60484.78;5052851;28;20370;-68
2023/04/08 06:41:05;;;;;;;36.00;16.87;;;;;;;-145.18;100.00;60484.78;5052806;28;20032;-69
2023/04/08 06:43:31;;;;;;;36.40;17.10;;;;;;;-145.18;100.00;60484.78;5052923;28;20113;-68
2023/04/08 06:45:57;;;;;;;40.37;18.63;;;;;;;-145.18;100.00;60484.78;5046378;28;20032;-68
2023/04/08 06:48:27;;;;;;;36.20;16.57;;;;;;;-145.18;100.00;60484.78;5032915;28;20481;-68
2023/04/08 06:50:54;;;;;;;41.27;19.83;;;;;;;-145.18;100.00;60484.78;5033074;28;20108;-68
2023/04/08 06:53:22;;;;;;;37.83;18.17;;;;;;;-145.18;100.00;60484.78;5033194;28;20481;-68
2023/04/08 06:55:47;;;;;;;37.53;17.33;;;;;;;-145.18;100.00;60484.78;5032997;28;20516;-68
2023/04/08 06:58:13;;;;;;;43.47;19.03;;;;;;;-145.18;100.00;60484.78;5032898;28;20108;-68
2023/04/08 07:00:38;;;;;;;42.83;19.47;;;;;;;-145.18;100.00;60484.78;5034073;28;20496;-68
2023/04/08 07:03:03;;;;;;;40.77;18.90;;;;;;;-145.18;100.00;60484.78;5050981;28;20133;-69
2023/04/08 07:05:29;;;;;;;37.63;18.30;;;;;;;-145.18;100.00;60484.78;5046505;28;20029;-68
2023/04/08 07:07:55;;;;;;;40.43;19.10;;;;;;;-145.18;100.00;60484.78;5056715;28;20463;-68
2023/04/08 07:10:20;;;;;;;40.80;19.23;;;;;;;-145.18;100.00;60484.78;5056540;28;20033;-68
2023/04/08 07:12:46;;;;;;;38.57;18.73;;;;;;;-145.18;100.00;60484.78;5056655;28;20047;-68
2023/04/08 07:15:11;;;;;;;42.80;19.10;;;;;;;-145.18;100.00;60484.78;5055641;28;20024;-68
2023/04/08 07:17:37;;;;;;;42.13;18.93;;;;;;;-145.18;100.00;60484.78;5056561;28;20063;-68
2023/04/08 07:20:02;;;;;;;38.80;18.63;;;;;;;-145.18;100.00;60484.78;5056660;28;20036;-68
2023/04/08 07:22:28;;;;;;;39.00;18.60;;;;;;;-145.18;100.00;60484.78;5055852;28;20041;-68
2023/04/08 07:24:54;;;;;;;40.90;19.43;;;;;;;-145.18;100.00;60484.78;5056283;28;20029;-68
2023/04/08 07:27:19;;;;;;;40.33;18.83;;;;;;;-145.18;100.00;60484.78;5050278;28;20477;-68
2023/04/08 07:29:45;;;;;;;43.23;19.20;;;;;;;-145.18;100.00;60484.78;5054207;28;20491;-68
2023/04/08 07:32:10;;;;;;;37.83;17.33;;;;;;;-145.18;100.00;60484.78;5054482;28;20025;-68
2023/04/08 07:34:36;;;;;;;42.00;18.87;;;;;;;-145.18;100.00;60484.78;5054132;28;20123;-68
2023/04/08 07:37:02;;;;;;;39.30;17.67;;;;;;;-145.18;100.00;60484.78;5053901;28;20506;-68
2023/04/08 07:39:27;;;;;;;40.97;17.60;;;;;;;-145.18;100.00;60484.78;5055482;28;20112;-68
2023/04/08 07:41:53;;;;;;;39.70;18.70;;;;;;;-145.18;100.00;60484.78;5055583;28;20381;-68
2023/04/08 07:44:18;;;;;;;39.20;18.03;;;;;;;-145.18;100.00;60484.78;5055291;28;20029;-68
2023/04/08 07:46:45;;;;;;;38.00;16.37;;;;;;;-145.18;100.00;60484.78;5050782;28;20064;-69
2023/04/08 07:49:11;;;;;;;36.73;17.60;;;;;;;-145.18;100.00;60484.78;5055058;28;20021;-68
2023/04/08 07:51:37;;;;;;;38.17;16.90;;;;;;;-145.18;100.00;60484.78;5055157;28;20025;-68
2023/04/08 07:54:02;;;;;;;41.67;19.43;;;;;;;-145.18;100.00;60484.78;5047063;28;20017;-68
2023/04/08 07:56:28;;;;;;;40.20;18.10;;;;;;;-145.18;100.00;60484.78;5054350;28;20036;-68
2023/04/08 07:58:53;;;;;;;41.77;18.53;;;;;;;-145.18;100.00;60484.78;5055211;28;20024;-69
2023/04/08 08:01:21;;;;;;;38.80;19.00;;;;;;;-145.18;100.00;60484.78;5053971;28;20022;-68
2023/04/08 08:03:47;;;;;;;34.37;16.37;;;;;;;-145.18;100.00;60484.78;5055597;28;20074;-69
2023/04/08 08:06:13;;;;;;;39.27;17.77;;;;;;;-145.18;100.00;60484.78;5055618;28;20025;-68
2023/04/08 08:08:38;;;;;;;41.63;17.83;;;;;;;-145.18;100.00;60484.78;5055463;28;20025;-69
2023/04/08 08:11:04;;;;;;;36.23;16.50;;;;;;;-145.18;100.00;60484.78;5054814;28;20033;-68
2023/04/08 08:13:30;;;;;;;33.07;14.80;;;;;;;-145.18;100.00;60484.78;5055283;28;20025;-68
2023/04/08 08:15:55;;;;;;;37.07;16.23;;;;;;;-145.18;100.00;60484.78;5054951;28;20037;-68
2023/04/08 08:18:21;;;;;;;35.93;15.37;;;;;;;-145.18;100.00;60484.78;5055254;28;20489;-68
2023/04/08 08:20:47;;;;;;;29.50;14.40;;;;;;;-145.18;100.00;60484.78;5055561;28;20147;-68
2023/04/08 08:23:12;;;;;;;27.47;14.03;;;;;;;-145.18;100.00;60484.78;5055468;28;20033;-68
2023/04/08 08:25:38;;;;;;;31.73;15.37;;;;;;;-145.18;100.00;60484.78;5055341;28;20036;-68
2023/04/08 08:28:03;;;;;;;27.57;13.87;;;;;;;-145.18;100.00;60484.78;5053481;28;20386;-68
2023/04/08 08:30:29;;;;;;;28.90;15.00;;;;;;;-145.18;100.00;60484.78;5055023;28;20029;-68
2023/04/08 08:32:57;;;;;;;28.57;13.30;;;;;;;-145.18;100.00;60484.78;5055212;28;20100;-69
2023/04/08 08:35:23;;;;;;;29.40;15.37;;;;;;;-145.18;100.00;60484.78;5055065;28;20029;-69
2023/04/08 08:37:49;;;;;;;30.47;14.87;;;;;;;-145.18;100.00;60484.78;5054878;28;20098;-69
2023/04/08 08:40:14;;;;;;;35.93;16.17;;;;;;;-145.18;100.00;60484.78;5054851;28;20033;-68
2023/04/08 08:42:40;;;;;;;32.83;15.97;;;;;;;-145.18;100.00;60484.78;5054768;28;20037;-68
2023/04/08 08:45:07;;;;;;;29.07;15.33;;;;;;;-145.18;100.00;60484.78;5054848;28;20115;-68
2023/04/08 08:47:32;;;;;;;29.27;14.30;;;;;;;-145.18;100.00;60484.78;5054723;28;20040;-68
2023/04/08 08:49:58;;;;;;;29.37;14.27;;;;;;;-145.18;100.00;60484.78;5054751;28;20024;-68
2023/04/08 08:52:23;;;;;;;33.03;15.67;;;;;;;-145.18;100.00;60484.78;5054682;28;20151;-68
2023/04/08 08:54:57;;;;;;;32.17;15.13;;;;;;;-145.18;100.00;60484.78;5055018;28;20075;-68
2023/04/08 08:57:22;;;;;;;31.83;14.90;;;;;;;-145.18;100.00;60484.78;5054734;28;20040;-68
2023/04/08 08:59:48;;;;;;;30.33;15.53;;;;;;;-145.18;100.00;60484.78;5054707;28;20025;-68
2023/04/08 09:02:25;;;;;;;27.63;14.03;;;;;;;-145.18;100.00;60484.78;5046364;28;20151;-68
2023/04/08 09:05:01;;;;;;;29.70;14.07;;;;;;;-145.18;100.00;60484.78;5034505;28;20035;-68
2023/04/08 09:07:29;;;;;;;26.00;13.03;;;;;;;-145.18;100.00;60484.78;5039255;28;20036;-68
2023/04/08 09:09:56;;;;;;;25.47;12.53;;;;;;;-145.18;100.00;60484.78;5054371;28;20095;-68
2023/04/08 09:12:22;;;;;;;26.17;13.80;;;;;;;-145.18;100.00;60484.78;5052925;28;20440;-68
2023/04/08 09:14:48;;;;;;;25.00;13.33;;;;;;;-145.18;100.00;60484.78;5054480;28;20365;-68
2023/04/08 09:17:14;;;;;;;23.13;12.90;;;;;;;-145.18;100.00;60484.78;5054374;28;20032;-68
2023/04/08 09:20:05;;;;;;;27.00;14.20;;;;;;;-145.18;100.00;60484.78;5054156;28;20025;-68
2023/04/08 09:22:33;;;;;;;25.97;13.77;;;;;;;-145.18;100.00;60484.78;5050870;28;20028;-68
2023/04/08 09:24:59;;;;;;;26.57;14.57;;;;;;;-145.18;100.00;60484.78;5041248;28;20085;-69
2023/04/08 09:27:35;;;;;;;24.30;13.37;;;;;;;-145.18;100.00;60484.78;5033301;28;20485;-69
2023/04/08 09:30:16;;;;;;;26.00;13.73;;;;;;;-145.18;100.00;60484.78;5034228;28;20128;-69
2023/04/08 09:32:55;;;;;;;26.05;13.35;;;;;;;-145.18;100.00;60484.78;5034090;28;20481;-68
2023/04/08 09:35:22;;;;;;;24.63;12.20;;;;;;;-145.18;100.00;60484.78;5033931;28;20396;-68
2023/04/08 09:37:48;;;;;;;23.27;13.83;;;;;;;-145.18;100.00;60484.78;5033586;28;20025;-69
2023/04/08 09:40:17;;;;;;;22.53;12.30;;;;;;;-145.18;100.00;60484.78;5033906;28;20025;-68
2023/04/08 09:42:51;;;;;;;24.43;13.30;;;;;;;-145.18;100.00;60484.78;5045927;28;20045;-69
2023/04/08 09:45:17;;;;;;;21.97;12.30;;;;;;;-145.18;100.00;60484.78;5049842;28;20106;-69
2023/04/08 09:48:10;;;;;;;20.63;12.67;;;;;;;-145.18;100.00;60484.78;5033675;28;20033;-69
2023/04/08 09:50:48;;;;;;;22.90;13.47;;;;;;;-145.18;100.00;60484.78;5027950;28;20077;-69
2023/04/08 09:53:19;;;;;;;24.67;13.13;;;;;;;-145.18;100.00;60484.78;5033623;28;20159;-69
2023/04/08 09:55:50;;;;;;;23.67;13.25;;;;;;;-145.18;100.00;60484.78;5033595;28;20032;-68
2023/04/08 09:58:26;;;;;;;23.15;12.93;;;;;;;-145.18;100.00;60484.78;5033428;28;20053;-69
2023/04/08 10:00:53;;;;;;;25.77;13.80;;;;;;;-145.18;100.00;60484.78;5033934;28;20429;-69
2023/04/08 10:03:51;;;;;;;27.60;14.10;;;;;;;-145.18;100.00;60484.78;5053380;28;20025;-69
2023/04/08 10:06:17;;;;;;;24.70;13.83;;;;;;;-145.18;100.00;60484.78;5046169;28;20033;-69
2023/04/08 10:08:44;;;;;;;24.97;13.50;;;;;;;-145.18;100.00;60484.78;5053273;28;20059;-69
2023/04/08 10:11:10;;;;;;;26.33;13.87;;;;;;;-145.18;100.00;60484.78;5053479;28;20020;-68
2023/04/08 10:13:35;;;;;;;23.07;13.70;;;;;;;-145.18;100.00;60484.78;5053200;28;20111;-68
2023/04/08 10:16:25;;;;;;;23.57;12.80;;;;;;;-145.18;100.00;60484.78;5053218;28;20091;-68
2023/04/08 10:18:54;;;;;;;23.33;13.27;;;;;;;-145.18;100.00;60484.78;5053281;28;20032;-68
2023/04/08 10:21:52;;;;;;;27.73;14.43;;;;;;;-145.18;100.00;60484.78;5052444;28;20549;-68
2023/04/08 10:24:23;;;;;;;25.63;13.77;;;;;;;-145.18;100.00;60484.78;5008760;28;20045;-68
2023/04/08 10:26:48;;;;;;;23.20;14.30;;;;;;;-145.18;100.00;60484.78;5051791;28;20476;-68
2023/04/08 10:29:32;;;;;;;25.93;14.63;;;;;;;-145.18;100.00;60484.78;5053230;28;20079;-68
2023/04/08 10:31:58;;;;;;;23.03;13.23;;;;;;;-145.18;100.00;60484.78;5053233;28;20032;-68
2023/04/08 10:34:25;;;;;;;24.67;14.90;;;;;;;-145.18;100.00;60484.78;5053033;28;20029;-68
2023/04/08 10:36:53;;;;;;;27.63;15.27;;;;;;;-145.18;100.00;60484.78;5052891;28;20481;-67
2023/04/08 10:39:18;;;;;;;31.13;15.43;;;;;;;-145.18;100.00;60484.78;5052801;28;20025;-68
2023/04/08 10:41:46;;;;;;;24.13;14.87;;;;;;;-145.18;100.00;60484.78;5052950;28;20029;-68
2023/04/08 10:44:23;;;;;;;29.93;15.20;;;;;;;-145.18;100.00;60484.78;5052811;28;20037;-67
2023/04/08 10:46:50;;;;;;;26.03;14.43;;;;;;;-145.18;100.00;60484.78;5052826;28;20036;-68
2023/04/08 10:49:18;;;;;;;30.03;16.10;;;;;;;-145.18;100.00;60484.78;5053034;28;20037;-68
2023/04/08 10:51:45;;;;;;;27.40;16.00;;;;;;;-145.18;100.00;60484.78;5053120;28;20416;-68
2023/04/08 10:54:12;;;;;;;29.53;16.47;;;;;;;-145.18;100.00;60484.78;5052847;28;20393;-67
2023/04/08 10:56:52;;;;;;;29.73;16.73;;;;;;;-145.18;100.00;60484.78;5052778;28;20397;-68
2023/04/08 10:59:28;;;;;;;26.00;14.80;;;;;;;-145.18;100.00;60484.78;5052811;28;20503;-68